createdAt,value
2023-05-24T00:00:11.540Z,0.79
2023-05-24T00:01:11.608Z,0.79
2023-05-24T00:02:11.638Z,0.79
2023-05-24T00:03:11.744Z,0.78
2023-05-24T00:04:11.832Z,0.79
2023-05-24T00:05:11.813Z,0.78
2023-05-24T00:06:10.853Z,0.78
2023-05-24T00:07:11.910Z,0.78
2023-05-24T00:08:11.927Z,0.78
2023-05-24T00:09:11.986Z,0.78
2023-05-24T00:10:12.064Z,0.77
2023-05-24T00:11:12.091Z,0.78
2023-05-24T00:12:12.157Z,0.79
2023-05-24T00:13:12.219Z,0.78
2023-05-24T00:14:11.256Z,0.78
2023-05-24T00:15:11.300Z,0.77
2023-05-24T00:16:12.405Z,0.78
2023-05-24T00:17:12.409Z,0.77
2023-05-24T00:18:12.478Z,0.77
2023-05-24T00:19:12.501Z,0.77
2023-05-24T00:20:12.662Z,0.78
2023-05-24T00:21:12.633Z,0.77
2023-05-24T00:22:12.671Z,0.77
2023-05-24T00:23:11.756Z,0.77
2023-05-24T00:24:12.776Z,0.77
2023-05-24T00:25:11.842Z,0.76
2023-05-24T00:26:11.885Z,0.76
2023-05-24T00:27:12.955Z,0.76
2023-05-24T00:28:13.005Z,0.76
2023-05-24T00:29:13.070Z,0.76
2023-05-24T00:30:13.111Z,0.76
2023-05-24T00:31:12.168Z,0.76
2023-05-24T00:32:12.256Z,0.76
2023-05-24T00:33:13.296Z,0.76
2023-05-24T00:34:13.331Z,0.75
2023-05-24T00:35:13.389Z,0.77
2023-05-24T00:36:13.460Z,0.75
2023-05-24T00:37:13.508Z,0.76
2023-05-24T00:38:13.656Z,0.76
2023-05-24T00:39:13.619Z,0.76
2023-05-24T00:40:12.668Z,0.75
2023-05-24T00:41:12.737Z,0.76
2023-05-24T00:42:13.782Z,0.76
2023-05-24T00:43:13.832Z,0.76
2023-05-24T00:44:13.918Z,0.76
2023-05-24T00:45:13.945Z,0.75
2023-05-24T00:46:14.052Z,0.76
2023-05-24T00:47:14.073Z,0.76
2023-05-24T00:48:14.110Z,0.75
2023-05-24T00:49:14.156Z,0.75
2023-05-24T00:50:13.311Z,0.76
2023-05-24T00:51:14.281Z,0.75
2023-05-24T00:52:13.324Z,0.75
2023-05-24T00:53:14.387Z,0.76
2023-05-24T00:54:14.455Z,0.76
2023-05-24T00:55:14.520Z,0.75
2023-05-24T00:56:14.591Z,0.75
2023-05-24T00:57:13.607Z,0.75
2023-05-24T00:58:13.682Z,0.74
2023-05-24T00:59:13.742Z,0.75
2023-05-24T01:00:14.792Z,0.75
2023-05-24T01:01:14.880Z,0.75
2023-05-24T01:02:13.947Z,0.73
2023-05-24T01:03:15.037Z,0.74
2023-05-24T01:04:15.007Z,0.74
2023-05-24T01:05:15.066Z,0.75
2023-05-24T01:06:14.140Z,0.74
2023-05-24T01:07:14.195Z,0.74
2023-05-24T01:08:15.248Z,0.74
2023-05-24T01:09:15.296Z,0.74
2023-05-24T01:10:15.371Z,0.74
2023-05-24T01:11:14.456Z,0.73
2023-05-24T01:12:14.484Z,0.74
2023-05-24T01:13:15.536Z,0.74
2023-05-24T01:14:15.593Z,0.74
2023-05-24T01:15:15.644Z,0.73
2023-05-24T01:16:14.758Z,0.73
2023-05-24T01:17:15.764Z,0.72
2023-05-24T01:18:15.825Z,0.74
2023-05-24T01:19:15.880Z,0.72
2023-05-24T01:20:15.956Z,0.72
2023-05-24T01:21:15.987Z,0.73
2023-05-24T01:22:16.051Z,0.73
2023-05-24T01:23:16.115Z,0.74
2023-05-24T01:24:15.177Z,0.73
2023-05-24T01:25:15.218Z,0.73
2023-05-24T01:26:15.284Z,0.72
2023-05-24T01:27:15.375Z,0.73
2023-05-24T01:28:16.410Z,0.72
2023-05-24T01:29:16.461Z,0.72
2023-05-24T01:30:16.527Z,0.73
2023-05-24T01:31:16.610Z,0.71
2023-05-24T01:32:15.633Z,0.73
2023-05-24T01:33:15.690Z,0.73
2023-05-24T01:34:16.788Z,0.73
2023-05-24T01:35:15.810Z,0.73
2023-05-24T01:36:16.861Z,0.72
2023-05-24T01:37:15.916Z,0.72
2023-05-24T01:38:16.977Z,0.72
2023-05-24T01:39:16.041Z,0.72
2023-05-24T01:40:17.102Z,0.71
2023-05-24T01:41:17.144Z,0.72
2023-05-24T01:42:17.212Z,0.71
2023-05-24T01:43:17.303Z,0.71
2023-05-24T01:44:16.339Z,0.71
2023-05-24T01:45:16.388Z,0.71
2023-05-24T01:46:16.473Z,0.71
2023-05-24T01:47:17.490Z,0.71
2023-05-24T01:48:17.548Z,0.72
2023-05-24T01:49:17.589Z,0.72
2023-05-24T01:50:17.677Z,0.71
2023-05-24T01:51:16.710Z,0.70
2023-05-24T01:52:17.789Z,0.71
2023-05-24T01:53:16.839Z,0.69
2023-05-24T01:54:17.887Z,0.70
2023-05-24T01:55:16.949Z,0.71
2023-05-24T01:56:16.989Z,0.70
2023-05-24T01:57:18.032Z,0.70
2023-05-24T01:58:18.103Z,0.70
2023-05-24T01:59:18.202Z,0.71
2023-05-24T02:00:18.220Z,0.71
2023-05-24T02:01:17.284Z,0.70
2023-05-24T02:02:18.379Z,0.71
2023-05-24T02:03:17.401Z,0.70
2023-05-24T02:04:18.435Z,0.71
2023-05-24T02:05:18.509Z,0.70
2023-05-24T02:06:18.538Z,0.70
2023-05-24T02:07:17.609Z,0.70
2023-05-24T02:08:17.654Z,0.70
2023-05-24T02:09:18.706Z,0.71
2023-05-24T02:10:18.760Z,0.69
2023-05-24T02:11:17.808Z,0.70
2023-05-24T02:12:18.869Z,0.71
2023-05-24T02:13:18.924Z,0.69
2023-05-24T02:14:17.972Z,0.69
2023-05-24T02:15:19.059Z,0.70
2023-05-24T02:16:19.123Z,0.70
2023-05-24T02:17:18.123Z,0.70
2023-05-24T02:18:18.196Z,0.69
2023-05-24T02:19:19.315Z,0.70
2023-05-24T02:20:19.354Z,0.68
2023-05-24T02:21:19.361Z,0.68
2023-05-24T02:22:19.413Z,0.70
2023-05-24T02:23:18.454Z,0.69
2023-05-24T02:24:19.523Z,0.69
2023-05-24T02:25:18.573Z,0.69
2023-05-24T02:26:19.618Z,0.69
2023-05-24T02:27:19.675Z,0.69
2023-05-24T02:28:19.728Z,0.69
2023-05-24T02:29:19.792Z,0.68
2023-05-24T02:30:19.848Z,0.69
2023-05-24T02:31:19.976Z,0.69
2023-05-24T02:32:19.957Z,0.69
2023-05-24T02:33:19.986Z,0.68
2023-05-24T02:34:20.054Z,0.69
2023-05-24T02:35:20.107Z,0.69
2023-05-24T02:36:19.181Z,0.69
2023-05-24T02:37:19.211Z,0.69
2023-05-24T02:38:19.259Z,0.69
2023-05-24T02:39:20.318Z,0.69
2023-05-24T02:40:20.376Z,0.69
2023-05-24T02:41:20.422Z,0.67
2023-05-24T02:42:20.541Z,0.69
2023-05-24T02:43:19.538Z,0.67
2023-05-24T02:44:20.601Z,0.68
2023-05-24T02:45:20.651Z,0.68
2023-05-24T02:46:19.778Z,0.67
2023-05-24T02:47:19.780Z,0.67
2023-05-24T02:48:19.837Z,0.68
2023-05-24T02:49:20.870Z,0.68
2023-05-24T02:50:20.926Z,0.69
2023-05-24T02:51:19.968Z,0.67
2023-05-24T02:52:20.033Z,0.67
2023-05-24T02:53:20.119Z,0.69
2023-05-24T02:54:21.185Z,0.67
2023-05-24T02:55:20.208Z,0.69
2023-05-24T02:56:20.262Z,0.67
2023-05-24T02:57:20.313Z,0.67
2023-05-24T02:58:20.361Z,0.68
2023-05-24T02:59:21.414Z,0.67
2023-05-24T03:00:21.478Z,0.67
2023-05-24T03:01:21.526Z,0.68
2023-05-24T03:02:21.593Z,0.67
2023-05-24T03:03:20.824Z,0.67
2023-05-24T03:04:21.688Z,0.68
2023-05-24T03:05:20.744Z,0.67
2023-05-24T03:06:21.796Z,0.67
2023-05-24T03:07:21.853Z,0.66
2023-05-24T03:08:20.901Z,0.67
2023-05-24T03:09:20.972Z,0.68
2023-05-24T03:10:21.025Z,0.66
2023-05-24T03:11:21.069Z,0.66
2023-05-24T03:12:22.146Z,0.67
2023-05-24T03:13:22.188Z,0.67
2023-05-24T03:14:21.227Z,0.67
2023-05-24T03:15:22.300Z,0.67
2023-05-24T03:16:21.442Z,0.67
2023-05-24T03:17:22.390Z,0.66
2023-05-24T03:18:22.459Z,0.67
2023-05-24T03:19:22.504Z,0.66
2023-05-24T03:20:22.558Z,0.66
2023-05-24T03:21:22.663Z,0.66
2023-05-24T03:22:21.640Z,0.66
2023-05-24T03:23:22.702Z,0.66
2023-05-24T03:24:22.750Z,0.66
2023-05-24T03:25:22.797Z,0.66
2023-05-24T03:26:22.844Z,0.66
2023-05-24T03:27:22.913Z,0.67
2023-05-24T03:28:22.966Z,0.66
2023-05-24T03:29:23.024Z,0.66
2023-05-24T03:30:23.091Z,0.66
2023-05-24T03:31:22.146Z,0.65
2023-05-24T03:32:23.221Z,0.66
2023-05-24T03:33:23.249Z,0.65
2023-05-24T03:34:23.313Z,0.67
2023-05-24T03:35:22.320Z,0.66
2023-05-24T03:36:23.375Z,0.66
2023-05-24T03:37:23.411Z,0.65
2023-05-24T03:38:22.473Z,0.66
2023-05-24T03:39:23.530Z,0.66
2023-05-24T03:40:23.579Z,0.66
2023-05-24T03:41:23.634Z,0.65
2023-05-24T03:42:22.725Z,0.65
2023-05-24T03:43:23.737Z,0.65
2023-05-24T03:44:23.802Z,0.65
2023-05-24T03:45:34.547Z,0.65
2023-05-24T03:46:23.858Z,0.65
2023-05-24T03:47:23.832Z,0.65
2023-05-24T03:48:23.853Z,0.65
2023-05-24T03:49:23.811Z,0.65
2023-05-24T03:50:22.839Z,0.66
2023-05-24T03:51:23.787Z,0.66
2023-05-24T03:52:23.804Z,0.65
2023-05-24T03:53:23.786Z,0.65
2023-05-24T03:54:23.787Z,0.65
2023-05-24T03:55:23.774Z,0.65
2023-05-24T03:56:22.772Z,0.65
2023-05-24T03:57:23.780Z,0.65
2023-05-24T03:58:22.760Z,0.65
2023-05-24T03:59:23.744Z,0.65
2023-05-24T04:00:23.732Z,0.65
2023-05-24T04:01:33.181Z,0.64
2023-05-24T04:02:23.773Z,0.65
2023-05-24T04:03:23.944Z,0.65
2023-05-24T04:04:22.779Z,0.64
2023-05-24T04:05:23.691Z,0.64
2023-05-24T04:06:23.719Z,0.64
2023-05-24T04:07:23.688Z,0.64
2023-05-24T04:08:23.710Z,0.65
2023-05-24T04:09:23.667Z,0.65
2023-05-24T04:10:23.658Z,0.65
2023-05-24T04:11:23.694Z,0.64
2023-05-24T04:12:22.697Z,0.65
2023-05-24T04:13:23.772Z,0.64
2023-05-24T04:14:23.856Z,0.64
2023-05-24T04:15:22.875Z,0.63
2023-05-24T04:16:22.929Z,0.64
2023-05-24T04:17:23.069Z,0.64
2023-05-24T04:18:24.217Z,0.63
2023-05-24T04:19:24.527Z,0.64
2023-05-24T04:20:24.186Z,0.64
2023-05-24T04:21:24.202Z,0.64
2023-05-24T04:22:25.716Z,0.65
2023-05-24T04:23:24.372Z,0.64
2023-05-24T04:24:24.430Z,0.64
2023-05-24T04:25:23.479Z,0.64
2023-05-24T04:26:24.521Z,0.64
2023-05-24T04:27:24.606Z,0.64
2023-05-24T04:28:24.650Z,0.64
2023-05-24T04:29:24.706Z,0.65
2023-05-24T04:30:23.749Z,0.65
2023-05-24T04:31:24.852Z,0.65
2023-05-24T04:32:24.931Z,0.64
2023-05-24T04:33:24.947Z,0.65
2023-05-24T04:34:25.003Z,0.64
2023-05-24T04:35:25.033Z,0.66
2023-05-24T04:36:25.078Z,0.65
2023-05-24T04:37:25.138Z,0.64
2023-05-24T04:38:25.240Z,0.65
2023-05-24T04:39:25.275Z,0.66
2023-05-24T04:40:25.299Z,0.65
2023-05-24T04:41:24.396Z,0.66
2023-05-24T04:42:25.407Z,0.66
2023-05-24T04:43:25.475Z,0.67
2023-05-24T04:44:24.521Z,0.66
2023-05-24T04:45:25.575Z,0.65
2023-05-24T04:46:25.648Z,0.66
2023-05-24T04:47:25.685Z,0.66
2023-05-24T04:48:25.768Z,0.66
2023-05-24T04:49:24.808Z,0.66
2023-05-24T04:50:25.873Z,0.66
2023-05-24T04:51:25.934Z,0.66
2023-05-24T04:52:26.011Z,0.66
2023-05-24T04:53:26.067Z,0.66
2023-05-24T04:54:26.134Z,0.65
2023-05-24T04:55:26.161Z,0.66
2023-05-24T04:56:26.220Z,0.65
2023-05-24T04:57:26.263Z,0.65
2023-05-24T04:58:26.338Z,0.66
2023-05-24T04:59:26.388Z,0.66
2023-05-24T05:00:26.458Z,0.66
2023-05-24T05:01:25.528Z,0.66
2023-05-24T05:02:25.561Z,0.66
2023-05-24T05:03:26.809Z,0.65
2023-05-24T05:04:26.694Z,0.65
2023-05-24T05:05:26.725Z,0.65
2023-05-24T05:06:26.811Z,0.65
2023-05-24T05:07:25.874Z,0.65
2023-05-24T05:08:25.925Z,0.66
2023-05-24T05:09:25.973Z,0.65
2023-05-24T05:10:26.042Z,0.65
2023-05-24T05:11:27.100Z,0.65
2023-05-24T05:12:26.122Z,0.65
2023-05-24T05:13:27.181Z,0.65
2023-05-24T05:14:26.251Z,0.65
2023-05-24T05:15:26.312Z,0.65
2023-05-24T05:16:27.406Z,0.65
2023-05-24T05:17:27.436Z,0.65
2023-05-24T05:18:27.489Z,0.65
2023-05-24T05:19:27.576Z,0.64
2023-05-24T05:20:27.679Z,0.64
2023-05-24T05:21:27.660Z,0.64
2023-05-24T05:22:29.408Z,0.64
2023-05-24T05:23:27.737Z,0.66
2023-05-24T05:24:26.731Z,0.66
2023-05-24T05:25:27.719Z,0.66
2023-05-24T05:26:26.706Z,0.64
2023-05-24T05:27:26.680Z,0.65
2023-05-24T05:28:27.692Z,0.64
2023-05-24T05:29:27.684Z,0.64
2023-05-24T05:30:26.681Z,0.64
2023-05-24T05:31:26.649Z,0.64
2023-05-24T05:32:27.733Z,0.63
2023-05-24T05:33:26.791Z,0.64
2023-05-24T05:34:27.654Z,0.64
2023-05-24T05:35:27.639Z,0.64
2023-05-24T05:36:27.653Z,0.65
2023-05-24T05:37:27.625Z,0.65
2023-05-24T05:38:26.642Z,0.64
2023-05-24T05:39:27.625Z,0.66
2023-05-24T05:40:27.629Z,0.66
2023-05-24T05:41:26.625Z,0.64
2023-05-24T05:42:27.640Z,0.65
2023-05-24T05:43:27.610Z,0.64
2023-05-24T05:44:26.587Z,0.66
2023-05-24T05:45:27.611Z,0.64
2023-05-24T05:46:26.726Z,0.64
2023-05-24T05:47:26.725Z,0.63
2023-05-24T05:48:27.771Z,0.64
2023-05-24T05:49:27.804Z,0.66
2023-05-24T05:50:27.893Z,0.66
2023-05-24T05:51:27.936Z,0.66
2023-05-24T05:52:27.025Z,0.68
2023-05-24T05:53:28.069Z,0.70
2023-05-24T05:54:27.106Z,0.70
2023-05-24T05:55:28.148Z,0.70
2023-05-24T05:56:28.209Z,0.71
2023-05-24T05:57:28.300Z,0.71
2023-05-24T05:58:28.319Z,0.72
2023-05-24T05:59:28.387Z,0.74
2023-05-24T06:00:28.438Z,0.77
2023-05-24T06:01:27.495Z,0.78
2023-05-24T06:02:28.666Z,0.80
2023-05-24T06:03:28.785Z,0.83
2023-05-24T06:04:28.699Z,0.86
2023-05-24T06:05:27.667Z,0.88
2023-05-24T06:06:28.718Z,0.91
2023-05-24T06:07:28.758Z,0.94
2023-05-24T06:08:28.779Z,0.99
2023-05-24T06:09:28.845Z,1.02
2023-05-24T06:10:27.829Z,1.06
2023-05-24T06:11:28.852Z,1.08
2023-05-24T06:12:28.900Z,1.10
2023-05-24T06:13:28.950Z,1.13
2023-05-24T06:14:28.964Z,1.16
2023-05-24T06:15:28.965Z,1.19
2023-05-24T06:16:27.990Z,1.21
2023-05-24T06:17:29.009Z,1.24
2023-05-24T06:18:28.020Z,1.28
2023-05-24T06:19:29.059Z,1.32
2023-05-24T06:20:28.132Z,1.33
2023-05-24T06:21:28.086Z,1.32
2023-05-24T06:22:28.081Z,1.32
2023-05-24T06:23:29.090Z,1.35
2023-05-24T06:24:29.136Z,1.35
2023-05-24T06:25:29.101Z,1.35
2023-05-24T06:26:29.147Z,1.38
2023-05-24T06:27:29.099Z,1.39
2023-05-24T06:28:29.088Z,1.39
2023-05-24T06:29:28.562Z,1.42
2023-05-24T06:30:28.259Z,1.48
2023-05-24T06:31:29.217Z,1.49
2023-05-24T06:32:29.196Z,1.49
2023-05-24T06:33:28.096Z,1.50
2023-05-24T06:34:29.099Z,1.55
2023-05-24T06:35:28.113Z,1.55
2023-05-24T06:36:29.084Z,1.51
2023-05-24T06:37:28.097Z,1.52
2023-05-24T06:38:29.125Z,1.54
2023-05-24T06:39:28.119Z,1.52
2023-05-24T06:40:29.142Z,1.50
2023-05-24T06:41:29.180Z,1.58
2023-05-24T06:42:29.174Z,1.53
2023-05-24T06:43:28.201Z,1.59
2023-05-24T06:44:29.259Z,1.61
2023-05-24T06:45:29.333Z,1.59
2023-05-24T06:46:29.420Z,1.60
2023-05-24T06:47:29.819Z,1.75
2023-05-24T06:48:29.657Z,1.81
2023-05-24T06:49:29.509Z,1.79
2023-05-24T06:50:28.566Z,1.78
2023-05-24T06:51:29.603Z,1.88
2023-05-24T06:52:29.668Z,2.00
2023-05-24T06:53:29.724Z,2.07
2023-05-24T06:54:30.066Z,2.04
2023-05-24T06:55:28.903Z,2.18
2023-05-24T06:56:29.061Z,2.22
2023-05-24T06:57:30.095Z,2.30
2023-05-24T06:58:30.022Z,2.39
2023-05-24T06:59:30.555Z,2.35
2023-05-24T07:00:30.219Z,2.43
2023-05-24T07:01:29.337Z,2.48
2023-05-24T07:02:30.304Z,2.45
2023-05-24T07:03:30.375Z,2.26
2023-05-24T07:04:29.556Z,2.31
2023-05-24T07:05:30.429Z,2.18
2023-05-24T07:06:29.502Z,2.10
2023-05-24T07:07:30.508Z,1.96
2023-05-24T07:08:29.525Z,1.91
2023-05-24T07:09:30.562Z,1.86
2023-05-24T07:10:29.564Z,1.82
2023-05-24T07:11:29.668Z,1.72
2023-05-24T07:12:29.637Z,1.64
2023-05-24T07:13:30.625Z,1.59
2023-05-24T07:14:29.581Z,1.53
2023-05-24T07:15:30.584Z,1.38
2023-05-24T07:16:29.619Z,1.34
2023-05-24T07:17:30.585Z,1.30
2023-05-24T07:18:29.562Z,1.26
2023-05-24T07:19:30.060Z,1.28
2023-05-24T07:20:29.653Z,1.20
2023-05-24T07:21:30.558Z,1.20
2023-05-24T07:22:30.564Z,1.19
2023-05-24T07:23:30.562Z,1.13
2023-05-24T07:24:30.600Z,1.08
2023-05-24T07:25:30.550Z,1.05
2023-05-24T07:26:29.549Z,0.97
2023-05-24T07:27:29.551Z,0.97
2023-05-24T07:28:30.579Z,1.00
2023-05-24T07:29:29.561Z,1.29
2023-05-24T07:30:32.575Z,1.36
2023-05-24T07:31:29.523Z,1.27
2023-05-24T07:32:30.619Z,1.13
2023-05-24T07:33:30.623Z,1.09
2023-05-24T07:34:29.523Z,0.97
2023-05-24T07:35:29.610Z,0.98
2023-05-24T07:36:30.466Z,0.93
2023-05-24T07:37:29.500Z,0.93
2023-05-24T07:38:30.559Z,0.90
2023-05-24T07:39:29.480Z,0.85
2023-05-24T07:40:29.530Z,0.81
2023-05-24T07:41:30.463Z,0.77
2023-05-24T07:42:29.526Z,0.74
2023-05-24T07:43:30.456Z,0.73
2023-05-24T07:44:29.462Z,0.72
2023-05-24T07:45:29.435Z,0.72
2023-05-24T07:46:29.439Z,0.89
2023-05-24T07:47:29.553Z,1.11
2023-05-24T07:48:30.405Z,1.30
2023-05-24T07:49:29.683Z,1.36
2023-05-24T07:50:30.408Z,1.69
2023-05-24T07:51:29.402Z,2.23
2023-05-24T07:52:30.385Z,2.41
2023-05-24T07:53:29.401Z,2.18
2023-05-24T07:54:30.380Z,1.96
2023-05-24T07:55:30.392Z,1.94
2023-05-24T07:56:29.380Z,1.96
2023-05-24T07:57:30.353Z,1.98
2023-05-24T07:58:29.360Z,2.09
2023-05-24T07:59:30.342Z,2.15
2023-05-24T08:00:29.339Z,2.17
2023-05-24T08:01:29.314Z,2.20
2023-05-24T08:02:29.401Z,2.19
2023-05-24T08:03:30.412Z,2.29
2023-05-24T08:04:30.318Z,2.24
2023-05-24T08:05:29.325Z,2.28
2023-05-24T08:06:30.328Z,2.26
2023-05-24T08:07:30.321Z,2.29
2023-05-24T08:08:30.273Z,2.28
2023-05-24T08:09:30.277Z,2.27
2023-05-24T08:10:30.292Z,2.29
2023-05-24T08:11:29.271Z,2.29
2023-05-24T08:12:30.268Z,2.32
2023-05-24T08:13:30.245Z,2.36
2023-05-24T08:14:29.257Z,2.33
2023-05-24T08:15:30.243Z,2.33
2023-05-24T08:16:30.258Z,2.38
2023-05-24T08:17:29.246Z,2.39
2023-05-24T08:18:30.227Z,2.42
2023-05-24T08:19:30.224Z,2.45
2023-05-24T08:20:30.223Z,2.49
2023-05-24T08:21:29.238Z,2.48
2023-05-24T08:22:29.185Z,2.50
2023-05-24T08:23:29.181Z,2.52
2023-05-24T08:24:30.184Z,2.55
2023-05-24T08:25:30.159Z,2.57
2023-05-24T08:26:29.160Z,2.57
2023-05-24T08:27:29.192Z,2.57
2023-05-24T08:28:30.176Z,2.60
2023-05-24T08:29:30.140Z,2.60
2023-05-24T08:30:29.134Z,2.63
2023-05-24T08:31:30.199Z,2.63
2023-05-24T08:32:30.210Z,2.62
2023-05-24T08:33:30.141Z,2.63
2023-05-24T08:34:30.169Z,2.63
2023-05-24T08:35:29.195Z,2.64
2023-05-24T08:36:30.213Z,2.64
2023-05-24T08:37:30.295Z,2.64
2023-05-24T08:38:30.283Z,2.65
2023-05-24T08:39:30.346Z,2.65
2023-05-24T08:40:29.380Z,2.65
2023-05-24T08:41:30.386Z,2.66
2023-05-24T08:42:30.392Z,2.65
2023-05-24T08:43:32.730Z,2.68
2023-05-24T08:44:30.611Z,2.72
2023-05-24T08:45:30.425Z,2.72
2023-05-24T08:46:29.436Z,2.69
2023-05-24T08:47:29.385Z,2.68
2023-05-24T08:48:30.509Z,2.69
2023-05-24T08:49:32.164Z,2.72
2023-05-24T08:50:29.367Z,2.72
2023-05-24T08:51:29.415Z,2.73
2023-05-24T08:52:31.083Z,2.74
2023-05-24T08:53:30.722Z,2.78
2023-05-24T08:54:30.360Z,2.78
2023-05-24T08:55:32.901Z,2.80
2023-05-24T08:56:29.341Z,2.81
2023-05-24T08:57:30.319Z,2.82
2023-05-24T08:58:30.315Z,2.81
2023-05-24T08:59:30.317Z,2.82
2023-05-24T09:00:30.336Z,2.66
2023-05-24T09:01:31.800Z,2.41
2023-05-24T09:02:30.331Z,2.42
2023-05-24T09:03:29.322Z,2.43
2023-05-24T09:04:30.280Z,2.44
2023-05-24T09:05:29.327Z,2.45
2023-05-24T09:06:30.255Z,2.39
2023-05-24T09:07:33.035Z,2.24
2023-05-24T09:08:30.245Z,2.23
2023-05-24T09:09:30.254Z,2.10
2023-05-24T09:10:41.233Z,1.91
2023-05-24T09:11:30.205Z,2.08
2023-05-24T09:12:37.225Z,1.95
2023-05-24T09:13:30.259Z,2.10
2023-05-24T09:14:30.205Z,2.01
2023-05-24T09:15:30.198Z,2.04
2023-05-24T09:16:29.191Z,2.02
2023-05-24T09:17:31.372Z,2.06
2023-05-24T09:18:30.156Z,2.12
2023-05-24T09:19:30.162Z,1.97
2023-05-24T09:20:30.186Z,1.90
2023-05-24T09:21:30.165Z,1.93
2023-05-24T09:22:30.161Z,1.92
2023-05-24T09:23:29.161Z,1.97
2023-05-24T09:24:30.134Z,1.97
2023-05-24T09:25:30.246Z,1.90
2023-05-24T09:26:29.126Z,1.85
2023-05-24T09:27:30.088Z,1.83
2023-05-24T09:28:30.105Z,1.85
2023-05-24T09:29:30.080Z,1.82
2023-05-24T09:30:29.087Z,1.92
2023-05-24T09:31:30.283Z,1.37
2023-05-24T09:32:30.108Z,1.07
2023-05-24T09:33:30.090Z,1.06
2023-05-24T09:34:30.071Z,1.17
2023-05-24T09:35:30.041Z,1.01
2023-05-24T09:36:30.055Z,1.02
2023-05-24T09:37:32.789Z,0.96
2023-05-24T09:38:30.030Z,0.96
2023-05-24T09:39:30.021Z,0.75
2023-05-24T09:40:29.027Z,0.67
2023-05-24T09:41:30.058Z,0.60
2023-05-24T09:42:29.118Z,0.54
2023-05-24T09:43:29.997Z,0.58
2023-05-24T09:44:28.986Z,0.58
2023-05-24T09:45:28.989Z,0.57
2023-05-24T09:46:30.067Z,0.57
2023-05-24T09:47:29.990Z,0.56
2023-05-24T09:48:29.946Z,0.56
2023-05-24T09:49:29.951Z,0.56
2023-05-24T09:50:30.129Z,0.56
2023-05-24T09:51:30.031Z,0.57
2023-05-24T09:52:30.021Z,0.51
2023-05-24T09:53:29.957Z,0.53
2023-05-24T09:54:29.937Z,0.58
2023-05-24T09:55:29.938Z,0.66
2023-05-24T09:56:29.919Z,0.56
2023-05-24T09:57:29.922Z,0.52
2023-05-24T09:58:29.935Z,0.53
2023-05-24T09:59:29.889Z,0.51
2023-05-24T10:00:29.137Z,0.50
2023-05-24T10:01:29.032Z,0.54
2023-05-24T10:02:38.136Z,0.58
2023-05-24T10:03:30.036Z,0.58
2023-05-24T10:04:28.973Z,0.54
2023-05-24T10:05:29.971Z,0.53
2023-05-24T10:06:29.933Z,0.48
2023-05-24T10:07:29.937Z,0.62
2023-05-24T10:08:29.918Z,0.65
2023-05-24T10:09:29.907Z,0.72
2023-05-24T10:10:28.904Z,0.76
2023-05-24T10:11:29.871Z,0.75
2023-05-24T10:12:29.873Z,0.89
2023-05-24T10:13:29.894Z,1.00
2023-05-24T10:14:29.877Z,1.01
2023-05-24T10:15:29.900Z,0.99
2023-05-24T10:16:28.899Z,0.99
2023-05-24T10:17:29.918Z,1.01
2023-05-24T10:18:28.887Z,1.03
2023-05-24T10:19:28.821Z,1.06
2023-05-24T10:20:28.863Z,1.11
2023-05-24T10:21:29.856Z,1.15
2023-05-24T10:22:29.817Z,1.20
2023-05-24T10:23:28.826Z,1.23
2023-05-24T10:24:29.786Z,1.27
2023-05-24T10:25:28.833Z,1.29
2023-05-24T10:26:29.779Z,1.33
2023-05-24T10:27:29.781Z,1.42
2023-05-24T10:28:29.777Z,1.48
2023-05-24T10:29:29.812Z,1.53
2023-05-24T10:30:29.792Z,1.57
2023-05-24T10:31:29.806Z,1.63
2023-05-24T10:32:29.775Z,1.65
2023-05-24T10:33:29.725Z,1.70
2023-05-24T10:34:28.709Z,1.76
2023-05-24T10:35:29.716Z,1.77
2023-05-24T10:36:29.732Z,1.79
2023-05-24T10:37:28.820Z,1.89
2023-05-24T10:38:29.966Z,1.93
2023-05-24T10:39:29.960Z,2.00
2023-05-24T10:40:29.936Z,2.13
2023-05-24T10:41:29.957Z,2.16
2023-05-24T10:42:30.032Z,2.16
2023-05-24T10:43:29.983Z,2.22
2023-05-24T10:44:29.967Z,2.38
2023-05-24T10:45:29.115Z,2.38
2023-05-24T10:46:30.022Z,2.35
2023-05-24T10:47:30.004Z,2.41
2023-05-24T10:48:30.022Z,2.45
2023-05-24T10:49:30.054Z,2.51
2023-05-24T10:50:30.162Z,2.53
2023-05-24T10:51:30.171Z,2.52
2023-05-24T10:52:29.237Z,2.58
2023-05-24T10:53:30.292Z,2.60
2023-05-24T10:54:29.381Z,2.73
2023-05-24T10:55:30.370Z,2.68
2023-05-24T10:56:29.464Z,2.69
2023-05-24T10:57:30.487Z,2.80
2023-05-24T10:58:29.554Z,2.84
2023-05-24T10:59:29.639Z,2.78
2023-05-24T11:01:29.727Z,2.95
2023-05-24T11:02:30.610Z,2.98
2023-05-24T11:03:30.608Z,3.03
2023-05-24T11:04:29.616Z,3.11
2023-05-24T11:05:30.562Z,3.21
2023-05-24T11:06:30.558Z,3.26
2023-05-24T11:07:30.567Z,3.23
2023-05-24T11:08:30.579Z,3.38
2023-05-24T11:09:30.545Z,3.33
2023-05-24T11:10:29.560Z,3.38
2023-05-24T11:11:32.288Z,3.32
2023-05-24T11:12:30.518Z,3.43
2023-05-24T11:13:29.523Z,3.55
2023-05-24T11:14:30.497Z,3.51
2023-05-24T11:15:30.538Z,3.54
2023-05-24T11:16:30.588Z,3.66
2023-05-24T11:17:29.595Z,3.67
2023-05-24T11:18:29.511Z,3.68
2023-05-24T11:19:30.477Z,3.69
2023-05-24T11:20:29.521Z,3.69
2023-05-24T11:21:30.458Z,3.82
2023-05-24T11:22:30.463Z,3.84
2023-05-24T11:23:30.481Z,3.88
2023-05-24T11:24:30.485Z,3.95
2023-05-24T11:25:29.465Z,3.92
2023-05-24T11:26:30.425Z,3.99
2023-05-24T11:27:30.413Z,4.04
2023-05-24T11:28:30.437Z,3.99
2023-05-24T11:29:30.422Z,4.13
2023-05-24T11:30:29.390Z,4.16
2023-05-24T11:31:30.441Z,4.27
2023-05-24T11:32:30.419Z,4.30
2023-05-24T11:33:29.415Z,4.29
2023-05-24T11:34:29.380Z,4.30
2023-05-24T11:35:30.357Z,4.25
2023-05-24T11:36:30.358Z,4.37
2023-05-24T11:37:45.160Z,4.37
2023-05-24T11:38:30.368Z,4.39
2023-05-24T11:39:29.346Z,4.43
2023-05-24T11:40:30.380Z,4.45
2023-05-24T11:41:29.332Z,4.60
2023-05-24T11:42:29.394Z,4.72
2023-05-24T11:43:30.341Z,4.85
2023-05-24T11:44:29.294Z,4.78
2023-05-24T11:45:30.324Z,4.66
2023-05-24T11:46:29.407Z,4.62
2023-05-24T11:47:30.345Z,4.69
2023-05-24T11:48:30.318Z,4.73
2023-05-24T11:49:29.284Z,4.75
2023-05-24T11:50:33.122Z,4.68
2023-05-24T11:51:30.254Z,4.69
2023-05-24T11:52:30.256Z,4.72
2023-05-24T11:53:30.258Z,4.72
2023-05-24T11:54:29.258Z,4.59
2023-05-24T11:55:30.247Z,4.55
2023-05-24T11:56:32.993Z,4.52
2023-05-24T11:57:30.215Z,4.53
2023-05-24T11:58:29.237Z,4.53
2023-05-24T11:59:30.208Z,4.52
2023-05-24T12:00:29.195Z,4.39
2023-05-24T12:01:30.215Z,4.28
2023-05-24T12:02:30.270Z,4.29
2023-05-24T12:03:29.488Z,4.22
2023-05-24T12:04:30.324Z,4.25
2023-05-24T12:05:30.195Z,4.24
2023-05-24T12:06:30.157Z,4.07
2023-05-24T12:07:30.139Z,4.08
2023-05-24T12:08:29.140Z,4.06
2023-05-24T12:09:30.181Z,3.92
2023-05-24T12:10:29.154Z,1.07
2023-05-24T12:11:30.120Z,0.55
2023-05-24T12:12:37.772Z,0.34
2023-05-24T12:13:30.105Z,0.34
2023-05-24T12:14:30.104Z,0.34
2023-05-24T12:15:29.096Z,0.34
2023-05-24T12:16:30.174Z,0.34
2023-05-24T12:17:29.106Z,0.34
2023-05-24T12:18:30.087Z,0.34
2023-05-24T12:19:33.667Z,0.34
2023-05-24T12:20:30.148Z,0.34
2023-05-24T12:21:30.181Z,0.34
2023-05-24T12:22:30.044Z,0.34
2023-05-24T12:23:30.061Z,0.34
2023-05-24T12:24:29.040Z,0.34
2023-05-24T12:25:29.040Z,0.34
2023-05-24T12:26:29.054Z,0.34
2023-05-24T12:27:29.036Z,0.34
2023-05-24T12:28:29.016Z,0.34
2023-05-24T12:29:29.980Z,0.34
2023-05-24T12:30:28.981Z,0.38
2023-05-24T12:31:30.051Z,0.49
2023-05-24T12:32:29.020Z,0.53
2023-05-24T12:33:30.010Z,0.54
2023-05-24T12:34:29.961Z,0.55
2023-05-24T12:35:29.954Z,0.54
2023-05-24T12:36:29.979Z,0.56
2023-05-24T12:37:29.984Z,0.64
2023-05-24T12:38:29.972Z,0.63
2023-05-24T12:39:30.023Z,0.62
2023-05-24T12:40:29.088Z,0.63
2023-05-24T12:41:29.144Z,0.64
2023-05-24T12:42:29.188Z,0.64
2023-05-24T12:43:30.229Z,0.66
2023-05-24T12:44:30.268Z,0.70
2023-05-24T12:45:30.300Z,0.68
2023-05-24T12:46:29.336Z,0.70
2023-05-24T12:47:30.386Z,0.71
2023-05-24T12:48:30.350Z,0.77
2023-05-24T12:49:29.366Z,0.83
2023-05-24T12:50:29.372Z,0.80
2023-05-24T12:51:30.408Z,0.86
2023-05-24T12:52:30.365Z,0.83
2023-05-24T12:53:30.382Z,0.85
2023-05-24T12:54:29.357Z,0.89
2023-05-24T12:55:29.365Z,0.89
2023-05-24T12:56:30.406Z,0.88
2023-05-24T12:57:29.440Z,0.89
2023-05-24T12:58:30.509Z,0.93
2023-05-24T12:59:29.574Z,0.93
2023-05-24T13:00:30.581Z,1.00
2023-05-24T13:01:30.708Z,0.96
2023-05-24T13:02:30.755Z,0.95
2023-05-24T13:03:29.761Z,0.92
2023-05-24T13:04:30.842Z,0.94
2023-05-24T13:05:30.975Z,1.06
2023-05-24T13:06:30.966Z,1.08
2023-05-24T13:07:30.990Z,1.01
2023-05-24T13:08:31.695Z,1.17
2023-05-24T13:09:31.148Z,1.18
2023-05-24T13:10:31.128Z,1.18
2023-05-24T13:11:31.187Z,1.21
2023-05-24T13:12:30.234Z,1.43
2023-05-24T13:13:31.282Z,1.45
2023-05-24T13:14:31.313Z,1.35
2023-05-24T13:15:31.401Z,1.30
2023-05-24T13:16:31.463Z,1.42
2023-05-24T13:17:31.606Z,1.58
2023-05-24T13:18:31.557Z,1.47
2023-05-24T13:19:31.632Z,1.50